Metar Aviation Weather Data YMML

18°C Temp
15°C Dewpoint
% Humidity
Temperature
24 KM/H
15 MPH
13 KTS
180°
Due South

Wind Speed
Light Rain
Showers
Pressure 997.92 (hPa) - 29.47 (in)
Visibility 6.2 (mi) - 10 (km)

Current Conditions
YMML
Metar :YMML 220930Z 18013KT 9999 -SHRA FEW010 SCT070 BKN120 18/15 Q0998 FM1030 21014KT 9999 -RA SCT010 BKN020 TEMPO 1030/1230 3000 RA BKN010 FM0930 MOD/SEV TURB BLW 5000FT TL1030
Wed 22nd January 20:30 pm

  Metar Aviation API Data Provided by https://www.checkwx.com/ PHP scripts by weather34.com ©2020